Time;durP1;ratioP1;P1;durP2;ratioP2;P2;SDS_P1;SDS_P2;PMS_P1;PMS_P2;Temp;Humidity;BMP_temperature;BMP_pressure;BME280_temperature;BME280_humidity;BME280_pressure;Samples;Min_cycle;Max_cycle;Signal;HPM_P1;HPM_P2
2021/04/16 00:00:24;;;;;;;8.43;4.57;;;4.30;99.90;;;;;;5101102;28;20278;-85
2021/04/16 00:02:51;;;;;;;6.35;3.72;;;4.30;99.90;;;;;;5096944;28;20276;-87
2021/04/16 00:05:17;;;;;;;7.15;4.25;;;4.20;99.90;;;;;;5095614;28;20221;-86
2021/04/16 00:07:44;;;;;;;8.20;4.35;;;4.40;99.90;;;;;;5095633;28;20256;-85
2021/04/16 00:10:15;;;;;;;6.25;4.28;;;4.20;99.90;;;;;;5098501;28;20229;-87
2021/04/16 00:12:42;;;;;;;6.43;3.70;;;4.20;99.90;;;;;;5099698;28;20225;-83
2021/04/16 00:15:10;;;;;;;9.23;4.38;;;4.00;99.90;;;;;;5099984;28;20281;-86
2021/04/16 00:17:38;;;;;;;12.07;4.18;;;4.10;99.90;;;;;;5097610;28;20584;-85
2021/04/16 00:20:06;;;;;;;8.93;4.13;;;4.10;99.90;;;;;;5095883;28;20201;-85
2021/04/16 00:22:34;;;;;;;9.07;4.60;;;4.00;99.90;;;;;;5097455;28;20627;-85
2021/04/16 00:25:01;;;;;;;6.40;4.47;;;4.00;99.90;;;;;;5096883;28;20295;-85
2021/04/16 00:27:27;;;;;;;6.65;4.18;;;3.90;99.90;;;;;;5097867;28;20237;-86
2021/04/16 00:29:53;;;;;;;7.40;3.97;;;3.90;99.90;;;;;;5099088;28;20257;-86
2021/04/16 00:32:20;;;;;;;6.78;4.13;;;4.10;99.90;;;;;;5096876;28;20666;-85
2021/04/16 00:34:47;;;;;;;8.23;4.43;;;3.80;99.90;;;;;;5107227;28;20420;-84
2021/04/16 00:37:13;;;;;;;8.40;4.93;;;3.80;99.90;;;;;;5098993;28;20539;-85
2021/04/16 00:39:40;;;;;;;7.07;4.18;;;4.00;99.90;;;;;;5098684;28;20296;-84
2021/04/16 00:42:08;;;;;;;6.85;4.50;;;4.00;99.90;;;;;;5098046;28;20255;-85
2021/04/16 00:44:34;;;;;;;7.47;4.40;;;3.70;99.90;;;;;;5102427;28;20201;-86
2021/04/16 00:47:04;;;;;;;7.60;3.97;;;3.90;99.90;;;;;;5096188;28;20244;-84
2021/04/16 00:49:34;;;;;;;9.02;4.13;;;3.90;99.90;;;;;;5095500;28;20260;-86
2021/04/16 00:52:03;;;;;;;6.38;3.60;;;3.70;99.90;;;;;;5097395;28;20219;-85
2021/04/16 00:54:34;;;;;;;7.03;3.85;;;3.90;99.90;;;;;;5096367;28;20277;-85
2021/04/16 00:57:00;;;;;;;6.30;3.78;;;3.80;99.90;;;;;;5094926;28;20312;-86
2021/04/16 00:59:30;;;;;;;6.80;4.18;;;3.80;99.90;;;;;;5094075;28;20209;-85
2021/04/16 01:01:58;;;;;;;8.25;4.55;;;3.60;99.90;;;;;;5094030;28;20295;-86
2021/04/16 01:04:26;;;;;;;6.10;3.45;;;3.70;99.90;;;;;;5093560;28;20208;-84
2021/04/16 01:06:53;;;;;;;5.70;3.60;;;3.80;99.90;;;;;;5093995;28;20228;-85
2021/04/16 01:09:20;;;;;;;6.00;3.60;;;3.60;99.90;;;;;;5094465;28;20209;-85
2021/04/16 01:11:47;;;;;;;6.43;4.10;;;3.40;99.90;;;;;;5095034;28;20277;-85
2021/04/16 01:14:14;;;;;;;6.85;4.13;;;3.60;99.90;;;;;;5095821;28;20328;-86
2021/04/16 01:16:41;;;;;;;7.25;4.50;;;3.50;99.90;;;;;;5096520;28;20698;-86
2021/04/16 01:19:16;;;;;;;9.30;4.22;;;3.60;99.90;;;;;;5098912;28;20209;-83
2021/04/16 01:21:51;;;;;;;7.38;3.90;;;3.70;99.90;;;;;;5104740;28;20566;-86
2021/04/16 01:24:24;;;;;;;6.50;4.75;;;3.60;99.90;;;;;;5096611;28;20205;-87
2021/04/16 01:26:51;;;;;;;7.88;4.35;;;3.50;99.90;;;;;;5098149;28;20256;-86
2021/04/16 01:29:18;;;;;;;11.40;4.30;;;3.50;99.90;;;;;;5096665;28;20209;-86
2021/04/16 01:31:47;;;;;;;9.25;4.82;;;3.30;99.90;;;;;;5096753;28;20219;-83
2021/04/16 01:34:15;;;;;;;8.27;5.00;;;3.50;99.90;;;;;;5097105;28;20229;-85
2021/04/16 01:36:42;;;;;;;6.80;4.15;;;3.30;99.90;;;;;;5107756;28;20303;-84
2021/04/16 01:39:09;;;;;;;6.03;4.05;;;3.30;99.90;;;;;;5110812;28;20201;-85
2021/04/16 01:41:36;;;;;;;6.70;3.70;;;3.30;99.90;;;;;;5110217;28;20201;-86
2021/04/16 01:44:05;;;;;;;6.28;4.35;;;3.30;99.90;;;;;;5107033;28;20229;-86
2021/04/16 01:46:51;;;;;;;10.10;3.97;;;3.30;99.90;;;;;;5105323;28;20534;-85
2021/04/16 01:49:18;;;;;;;7.60;4.30;;;3.50;99.90;;;;;;5108174;28;20190;-84
2021/04/16 01:51:45;;;;;;;6.20;3.80;;;3.40;99.90;;;;;;5105154;28;20251;-84
2021/04/16 01:54:14;;;;;;;6.53;3.97;;;3.40;99.90;;;;;;5102414;28;20204;-85
2021/04/16 01:56:45;;;;;;;5.60;4.05;;;3.30;99.90;;;;;;5097104;28;20253;-86
2021/04/16 01:59:13;;;;;;;7.70;4.18;;;3.40;99.90;;;;;;5098203;28;20197;-84
2021/04/16 02:01:43;;;;;;;7.05;4.22;;;3.20;99.90;;;;;;5097284;28;20205;-85
2021/04/16 02:04:09;;;;;;;6.93;4.40;;;3.40;99.90;;;;;;5097931;28;20213;-85
2021/04/16 02:06:36;;;;;;;7.68;4.00;;;3.20;99.90;;;;;;5096710;28;20297;-85
2021/04/16 02:09:05;;;;;;;5.95;3.78;;;3.20;99.90;;;;;;5095148;28;20296;-86
2021/04/16 02:11:32;;;;;;;6.53;4.30;;;3.30;99.90;;;;;;5095832;28;20706;-85
2021/04/16 02:13:59;;;;;;;6.85;3.88;;;3.40;99.90;;;;;;5096089;28;20702;-85
2021/04/16 02:16:26;;;;;;;6.93;3.78;;;3.40;99.90;;;;;;5096262;28;20374;-86
2021/04/16 02:18:52;;;;;;;6.75;4.03;;;3.30;99.90;;;;;;5096375;28;20295;-86
2021/04/16 02:21:19;;;;;;;6.53;3.85;;;3.30;99.90;;;;;;5096149;28;20201;-84
2021/04/16 02:23:45;;;;;;;5.57;3.63;;;3.40;99.90;;;;;;5096408;28;20209;-85
2021/04/16 02:26:12;;;;;;;5.70;3.50;;;3.20;99.90;;;;;;5095469;28;20255;-85
2021/04/16 02:28:38;;;;;;;9.07;4.07;;;3.40;99.90;;;;;;5094506;28;20217;-86
2021/04/16 02:31:05;;;;;;;8.73;3.80;;;3.20;99.90;;;;;;5094476;28;20304;-86
2021/04/16 02:33:32;;;;;;;5.32;3.40;;;3.30;99.90;;;;;;5095776;28;20284;-84
2021/04/16 02:35:58;;;;;;;6.97;5.13;;;3.20;99.90;;;;;;5095633;28;20290;-85
2021/04/16 02:38:24;;;;;;;7.35;3.92;;;3.20;99.90;;;;;;5095724;28;20231;-85
2021/04/16 02:40:51;;;;;;;6.53;3.83;;;2.90;99.90;;;;;;5101368;28;20221;-85
2021/04/16 02:43:18;;;;;;;6.10;4.00;;;3.10;99.90;;;;;;5101432;28;20295;-85
2021/04/16 02:45:46;;;;;;;6.30;3.80;;;3.00;99.90;;;;;;5100267;28;20583;-84
2021/04/16 02:48:13;;;;;;;5.80;3.72;;;3.20;99.90;;;;;;5100317;28;20311;-84
2021/04/16 02:50:39;;;;;;;6.78;3.50;;;3.10;99.90;;;;;;5100674;28;20221;-84
2021/04/16 02:53:06;;;;;;;7.32;4.00;;;3.30;99.90;;;;;;5099324;28;20209;-85
2021/04/16 02:55:32;;;;;;;7.20;3.88;;;3.00;99.90;;;;;;5100666;28;20369;-83
2021/04/16 02:57:59;;;;;;;6.60;4.00;;;3.20;99.90;;;;;;5099548;28;20271;-85
2021/04/16 03:00:29;;;;;;;10.50;4.43;;;3.10;99.90;;;;;;5101001;28;20270;-85
2021/04/16 03:02:55;;;;;;;7.85;4.18;;;3.00;99.90;;;;;;5080767;28;20292;-84
2021/04/16 03:05:23;;;;;;;7.53;4.72;;;3.10;99.90;;;;;;5080356;28;20606;-85
2021/04/16 03:07:50;;;;;;;6.28;3.80;;;3.10;99.90;;;;;;5081124;28;20275;-85
2021/04/16 03:10:17;;;;;;;6.80;4.25;;;3.00;99.90;;;;;;5080478;28;20261;-85
2021/04/16 03:12:43;;;;;;;6.07;4.25;;;3.00;99.90;;;;;;5098096;28;20265;-84
2021/04/16 03:15:11;;;;;;;5.28;3.47;;;3.00;99.90;;;;;;5100522;28;20287;-86
2021/04/16 03:17:37;;;;;;;11.57;4.55;;;2.90;99.90;;;;;;5099452;28;20311;-86
2021/04/16 03:20:05;;;;;;;8.00;4.28;;;3.10;99.90;;;;;;5101180;28;20208;-84
2021/04/16 03:22:33;;;;;;;8.05;4.05;;;2.90;99.90;;;;;;5102065;28;20224;-86
2021/04/16 03:24:59;;;;;;;8.50;4.70;;;3.00;99.90;;;;;;5104737;28;20204;-84
2021/04/16 03:27:26;;;;;;;6.65;4.13;;;2.90;99.90;;;;;;5102403;28;20368;-85
2021/04/16 03:29:52;;;;;;;8.60;4.38;;;3.00;99.90;;;;;;5101882;28;20243;-84
2021/04/16 03:32:18;;;;;;;6.70;4.03;;;3.00;99.90;;;;;;5099568;28;20288;-85
2021/04/16 03:34:45;;;;;;;6.20;4.25;;;2.90;99.90;;;;;;5098129;28;20284;-85
2021/04/16 03:37:11;;;;;;;8.80;4.30;;;3.00;99.90;;;;;;5099839;28;20267;-86
2021/04/16 03:39:38;;;;;;;8.15;3.85;;;2.80;99.90;;;;;;5099473;28;20272;-85
2021/04/16 03:42:06;;;;;;;7.18;4.30;;;2.80;99.90;;;;;;5098527;28;20205;-85
2021/04/16 03:44:33;;;;;;;6.45;4.00;;;3.00;99.90;;;;;;5099691;28;20227;-84
2021/04/16 03:46:59;;;;;;;7.32;4.65;;;2.70;99.90;;;;;;5100627;28;20269;-82
2021/04/16 03:49:26;;;;;;;7.72;3.58;;;2.60;99.90;;;;;;5104095;28;20213;-83
2021/04/16 03:51:55;;;;;;;6.30;3.80;;;2.70;99.90;;;;;;5097396;28;20205;-83
2021/04/16 03:54:21;;;;;;;9.48;4.55;;;2.60;99.90;;;;;;5095764;28;20225;-84
2021/04/16 03:56:49;;;;;;;6.82;4.30;;;2.60;99.90;;;;;;5097010;28;20283;-85
2021/04/16 03:59:17;;;;;;;8.25;4.40;;;2.60;99.90;;;;;;5101148;28;20348;-84
2021/04/16 04:01:43;;;;;;;7.30;4.10;;;2.70;99.90;;;;;;5104960;28;20204;-85
2021/04/16 04:04:10;;;;;;;15.85;5.30;;;2.70;99.90;;;;;;5101097;28;20233;-82
2021/04/16 04:06:36;;;;;;;8.30;4.28;;;2.80;99.90;;;;;;5111607;28;20274;-81
2021/04/16 04:09:03;;;;;;;6.30;4.00;;;2.80;99.90;;;;;;5107087;28;20237;-81
2021/04/16 04:11:30;;;;;;;8.13;4.15;;;2.70;99.90;;;;;;5111634;28;20221;-82
2021/04/16 04:13:58;;;;;;;8.68;4.30;;;2.60;99.90;;;;;;5107945;28;20220;-83
2021/04/16 04:16:25;;;;;;;6.10;3.97;;;2.60;99.90;;;;;;5102376;28;20227;-84
2021/04/16 04:18:51;;;;;;;6.70;3.83;;;2.80;99.90;;;;;;5100436;28;20640;-84
2021/04/16 04:21:18;;;;;;;6.95;4.00;;;2.50;99.90;;;;;;5098305;28;20618;-82
2021/04/16 04:23:44;;;;;;;7.40;4.85;;;2.80;99.90;;;;;;5098687;28;20266;-83
2021/04/16 04:26:10;;;;;;;6.57;4.18;;;2.40;99.90;;;;;;5099758;28;20311;-84
2021/04/16 04:28:37;;;;;;;6.78;4.18;;;2.80;99.90;;;;;;5098455;28;20244;-83
2021/04/16 04:31:05;;;;;;;8.48;4.32;;;2.60;99.90;;;;;;5097906;28;20225;-83
2021/04/16 04:33:31;;;;;;;7.25;4.68;;;2.70;99.90;;;;;;5097505;28;20232;-82
2021/04/16 04:35:57;;;;;;;7.32;4.60;;;2.70;99.90;;;;;;5100677;28;20296;-83
2021/04/16 04:38:24;;;;;;;8.02;4.57;;;2.70;99.90;;;;;;5100388;28;20329;-84
2021/04/16 04:40:51;;;;;;;7.93;4.00;;;2.60;99.90;;;;;;5098932;28;20228;-84
2021/04/16 04:43:18;;;;;;;5.13;3.90;;;2.60;99.90;;;;;;5078147;28;20316;-83
2021/04/16 04:45:45;;;;;;;7.47;4.15;;;2.60;99.90;;;;;;5077806;28;20216;-85
2021/04/16 04:48:12;;;;;;;5.22;3.58;;;2.90;99.90;;;;;;5076862;28;20728;-85
2021/04/16 04:50:39;;;;;;;7.72;4.53;;;2.80;99.90;;;;;;5077049;28;20221;-86
2021/04/16 04:53:05;;;;;;;6.90;4.20;;;2.70;99.90;;;;;;5095624;28;20202;-83
2021/04/16 04:55:33;;;;;;;11.05;4.15;;;2.60;99.90;;;;;;5097227;28;20228;-84
2021/04/16 04:58:00;;;;;;;7.97;4.20;;;2.70;99.90;;;;;;5095950;28;20316;-83
2021/04/16 05:00:27;;;;;;;8.48;4.45;;;2.60;99.90;;;;;;5096482;28;20336;-85
2021/04/16 05:02:54;;;;;;;8.88;4.47;;;2.70;99.90;;;;;;5097161;28;20289;-84
2021/04/16 05:05:23;;;;;;;7.72;4.45;;;2.60;99.90;;;;;;5097401;28;20296;-84
2021/04/16 05:07:49;;;;;;;6.82;4.15;;;2.60;99.90;;;;;;5097698;28;20240;-84
2021/04/16 05:10:16;;;;;;;8.07;3.92;;;2.60;99.90;;;;;;5098971;28;20229;-84
2021/04/16 05:12:43;;;;;;;7.15;4.15;;;2.60;99.90;;;;;;5097207;28;20233;-84
2021/04/16 05:15:11;;;;;;;9.10;4.25;;;2.90;99.90;;;;;;5097510;28;20291;-85
2021/04/16 05:17:37;;;;;;;10.65;6.72;;;2.70;99.90;;;;;;5099062;28;20266;-84
2021/04/16 05:20:06;;;;;;;16.25;7.90;;;2.80;99.90;;;;;;5097647;28;20277;-85
2021/04/16 05:22:33;;;;;;;10.98;7.50;;;2.80;99.90;;;;;;5097979;28;20225;-83
2021/04/16 05:24:59;;;;;;;7.93;5.40;;;2.80;99.90;;;;;;5102729;28;20217;-84
2021/04/16 05:27:26;;;;;;;8.10;5.43;;;2.70;99.90;;;;;;5105008;28;20256;-83
2021/04/16 05:29:54;;;;;;;10.20;5.93;;;2.90;99.90;;;;;;5097495;28;22132;-83
2021/04/16 05:32:20;;;;;;;7.55;5.10;;;2.80;99.90;;;;;;5096993;28;20203;-84
2021/04/16 05:34:48;;;;;;;9.30;5.40;;;3.00;99.90;;;;;;5098954;28;20355;-83
2021/04/16 05:37:15;;;;;;;9.40;6.05;;;3.00;99.90;;;;;;5097482;28;20229;-85
2021/04/16 05:39:42;;;;;;;11.90;6.75;;;3.10;99.90;;;;;;5095560;28;20205;-84
2021/04/16 05:42:09;;;;;;;9.20;6.15;;;3.10;99.90;;;;;;5096507;28;20269;-84
2021/04/16 05:44:36;;;;;;;9.80;7.07;;;3.30;99.90;;;;;;5096564;28;20201;-83
2021/04/16 05:47:03;;;;;;;10.02;6.68;;;3.30;99.90;;;;;;5097040;28;20286;-85
2021/04/16 05:49:29;;;;;;;11.30;6.63;;;3.10;99.90;;;;;;5096411;28;20663;-83
2021/04/16 05:51:56;;;;;;;13.25;8.10;;;3.20;99.90;;;;;;5096013;28;20271;-81
2021/04/16 05:54:22;;;;;;;9.90;6.95;;;3.40;99.90;;;;;;5103031;28;20869;-81
2021/04/16 05:56:50;;;;;;;11.13;6.03;;;3.50;99.90;;;;;;5107379;28;20252;-82
2021/04/16 05:59:16;;;;;;;11.95;6.65;;;3.60;99.90;;;;;;5100847;28;20310;-83
2021/04/16 06:01:42;;;;;;;10.88;6.32;;;3.60;99.90;;;;;;5095866;28;20754;-83
2021/04/16 06:04:15;;;;;;;10.75;6.90;;;3.70;99.90;;;;;;5095989;28;20266;-83
2021/04/16 06:06:41;;;;;;;7.53;5.35;;;3.70;99.90;;;;;;5096487;28;20661;-83
2021/04/16 06:09:08;;;;;;;9.65;4.20;;;4.10;99.90;;;;;;5095805;28;20268;-82
2021/04/16 06:11:37;;;;;;;7.75;5.22;;;4.10;99.90;;;;;;5096068;28;20263;-84
2021/04/16 06:14:05;;;;;;;8.90;5.55;;;4.10;99.90;;;;;;5095277;28;20212;-83
2021/04/16 06:16:32;;;;;;;8.15;4.85;;;4.00;99.90;;;;;;5100586;28;20244;-83
2021/04/16 06:18:58;;;;;;;6.85;4.22;;;4.00;99.90;;;;;;5104171;28;20217;-83
2021/04/16 06:21:25;;;;;;;8.93;5.45;;;4.00;99.90;;;;;;5096908;28;20202;-84
2021/04/16 06:23:55;;;;;;;9.13;3.95;;;4.00;99.90;;;;;;5096882;28;20224;-81
2021/04/16 06:26:21;;;;;;;10.48;5.85;;;4.20;99.90;;;;;;5097995;28;20209;-83
2021/04/16 06:28:50;;;;;;;13.95;5.43;;;4.10;99.90;;;;;;5097410;28;20705;-83
2021/04/16 06:31:18;;;;;;;5.35;3.35;;;4.10;99.90;;;;;;5098492;28;20225;-83
2021/04/16 06:33:45;;;;;;;8.88;4.93;;;4.10;99.90;;;;;;5098094;28;20197;-83
2021/04/16 06:36:16;;;;;;;8.02;5.45;;;3.90;99.90;;;;;;5106920;28;20197;-84
2021/04/16 06:38:46;;;;;;;8.45;5.70;;;4.20;99.90;;;;;;5092491;28;20544;-76
2021/04/16 06:41:18;;;;;;;10.68;6.20;;;4.10;99.90;;;;;;5089635;28;20551;-76
2021/04/16 06:43:47;;;;;;;7.80;4.97;;;4.20;99.90;;;;;;5088264;28;20212;-76
2021/04/16 06:46:17;;;;;;;7.10;4.25;;;4.40;99.90;;;;;;5089583;28;20251;-76
2021/04/16 06:48:44;;;;;;;10.20;6.85;;;4.00;99.90;;;;;;5089560;28;20197;-76
2021/04/16 06:51:13;;;;;;;9.88;6.47;;;3.90;99.90;;;;;;5075908;28;20217;-76
2021/04/16 06:53:49;;;;;;;8.88;6.10;;;4.20;99.90;;;;;;5089677;28;20547;-76
2021/04/16 06:56:19;;;;;;;8.65;4.80;;;4.40;99.90;;;;;;5079908;28;20282;-76
2021/04/16 06:58:52;;;;;;;6.43;4.55;;;4.30;99.90;;;;;;5091109;28;20224;-76
2021/04/16 07:01:27;;;;;;;10.65;5.85;;;4.40;99.90;;;;;;5090834;28;20240;-76
2021/04/16 07:04:15;;;;;;;9.65;4.75;;;4.30;99.90;;;;;;5092267;28;20208;-80
2021/04/16 07:06:42;;;;;;;5.82;3.17;;;4.40;99.90;;;;;;5074689;28;20305;-79
2021/04/16 07:09:11;;;;;;;5.90;3.30;;;4.50;99.90;;;;;;5082018;28;20200;-81
2021/04/16 07:11:41;;;;;;;9.93;5.32;;;4.50;99.90;;;;;;5095601;28;20227;-79
2021/04/16 07:14:17;;;;;;;11.80;6.00;;;4.50;99.90;;;;;;5095919;28;20668;-84
2021/04/16 07:16:46;;;;;;;7.63;4.88;;;4.50;99.90;;;;;;5098365;28;20220;-79
2021/04/16 07:19:17;;;;;;;12.30;5.70;;;4.70;99.90;;;;;;5095686;28;20304;-80
2021/04/16 07:21:43;;;;;;;7.30;5.32;;;4.70;99.90;;;;;;5095269;28;20225;-79
2021/04/16 07:24:13;;;;;;;7.28;5.35;;;4.90;99.90;;;;;;5099954;28;20212;-84
2021/04/16 07:26:44;;;;;;;9.80;6.00;;;4.70;99.90;;;;;;5104109;28;20250;-84
2021/04/16 07:29:16;;;;;;;9.13;6.05;;;4.80;99.90;;;;;;5083087;28;20213;-85
2021/04/16 07:31:49;;;;;;;8.95;5.93;;;4.90;99.90;;;;;;5098569;28;20241;-85
2021/04/16 07:34:44;;;;;;;10.38;6.30;;;5.00;99.90;;;;;;5102329;28;20259;-85
2021/04/16 07:37:14;;;;;;;11.15;6.90;;;5.20;99.90;;;;;;5097474;28;20609;-84
2021/04/16 07:39:46;;;;;;;8.43;5.88;;;5.20;99.90;;;;;;5104828;28;20284;-87
2021/04/16 07:42:22;;;;;;;8.00;6.30;;;5.20;99.90;;;;;;5099779;28;20296;-84
2021/04/16 07:45:18;;;;;;;10.73;6.32;;;5.30;99.90;;;;;;5099439;28;20208;-85
2021/04/16 07:47:48;;;;;;;8.23;5.68;;;5.40;99.90;;;;;;5099880;28;20220;-87
2021/04/16 07:50:29;;;;;;;8.63;5.88;;;5.60;99.90;;;;;;5098132;28;20251;-85
2021/04/16 07:52:55;;;;;;;8.15;5.90;;;5.70;99.90;;;;;;5079121;28;20272;-85
2021/04/16 07:55:26;;;;;;;12.30;5.45;;;5.50;99.90;;;;;;5078790;28;20312;-85
2021/04/16 07:58:07;;;;;;;10.85;6.82;;;5.40;99.90;;;;;;5082255;28;20221;-83
2021/04/16 08:00:36;;;;;;;10.75;6.65;;;5.30;99.90;;;;;;5082111;28;20235;-84
2021/04/16 08:03:15;;;;;;;9.85;6.28;;;5.30;99.90;;;;;;5079636;28;20264;-84
2021/04/16 08:05:45;;;;;;;9.07;6.32;;;5.10;99.90;;;;;;5091506;28;20609;-84
2021/04/16 08:08:24;;;;;;;8.38;5.43;;;5.10;99.90;;;;;;5098729;28;20293;-85
2021/04/16 08:10:53;;;;;;;8.82;6.32;;;5.20;99.90;;;;;;5098731;28;20224;-86
2021/04/16 08:13:23;;;;;;;9.82;6.95;;;4.90;99.90;;;;;;5099190;28;20270;-83
2021/04/16 08:15:50;;;;;;;11.13;6.18;;;4.90;99.90;;;;;;5101345;28;20213;-85
2021/04/16 08:18:25;;;;;;;7.47;6.13;;;5.20;99.90;;;;;;5100688;28;20304;-85
2021/04/16 08:21:01;;;;;;;6.95;5.95;;;5.30;99.90;;;;;;5097970;28;20193;-85
2021/04/16 08:23:36;;;;;;;8.50;6.68;;;5.60;99.90;;;;;;5097292;28;20343;-86
2021/04/16 08:26:03;;;;;;;11.70;6.65;;;5.60;99.90;;;;;;5098732;28;20227;-86
2021/04/16 08:28:49;;;;;;;8.88;5.05;;;5.60;99.90;;;;;;5098777;28;20260;-85
2021/04/16 08:31:22;;;;;;;8.90;5.18;;;5.80;99.90;;;;;;5094861;28;20715;-84
2021/04/16 08:34:05;;;;;;;10.65;6.50;;;5.60;99.90;;;;;;5089557;28;20212;-85
2021/04/16 08:36:35;;;;;;;8.70;6.10;;;5.40;99.90;;;;;;5085323;28;20351;-86
2021/04/16 08:39:07;;;;;;;10.15;6.35;;;5.50;99.90;;;;;;5082080;28;20201;-85
2021/04/16 08:41:39;;;;;;;11.98;7.35;;;5.60;99.90;;;;;;5091931;28;20250;-85
2021/04/16 08:44:11;;;;;;;8.02;6.25;;;5.50;99.90;;;;;;5104908;28;20197;-85
2021/04/16 08:46:42;;;;;;;9.07;7.43;;;5.40;99.90;;;;;;5104067;28;20228;-84
2021/04/16 08:49:11;;;;;;;8.23;6.38;;;5.60;99.90;;;;;;5100405;28;20289;-86
2021/04/16 08:51:48;;;;;;;7.60;5.55;;;5.50;99.90;;;;;;5087204;28;20229;-86
2021/04/16 08:54:19;;;;;;;9.75;6.43;;;5.70;99.90;;;;;;5096087;28;20200;-86
2021/04/16 08:56:53;;;;;;;8.13;6.43;;;5.70;99.90;;;;;;5098790;28;20260;-85
2021/04/16 08:59:25;;;;;;;8.07;5.93;;;5.80;99.90;;;;;;5100936;28;20205;-85
2021/04/16 09:01:56;;;;;;;7.80;6.00;;;5.90;99.90;;;;;;5101553;28;20181;-86
2021/04/16 09:04:44;;;;;;;6.65;5.07;;;5.70;99.90;;;;;;5102051;28;20238;-85
2021/04/16 09:07:30;;;;;;;6.65;5.63;;;5.80;99.90;;;;;;5102720;28;20252;-83
2021/04/16 09:10:11;;;;;;;7.30;6.50;;;6.00;99.90;;;;;;5099721;28;20346;-83
2021/04/16 09:12:57;;;;;;;8.18;5.00;;;5.80;99.90;;;;;;5097774;28;20721;-86
2021/04/16 09:15:44;;;;;;;8.35;5.85;;;5.90;99.90;;;;;;5097345;28;20204;-80
2021/04/16 09:18:34;;;;;;;8.18;5.22;;;6.40;99.90;;;;;;5098546;28;20308;-85
2021/04/16 09:21:26;;;;;;;8.70;5.05;;;6.60;99.90;;;;;;5094666;28;20629;-82
2021/04/16 09:24:01;;;;;;;8.68;5.30;;;6.50;99.90;;;;;;5091731;28;20208;-78
2021/04/16 09:27:07;;;;;;;8.15;5.90;;;6.30;99.90;;;;;;5089284;28;20287;-79
2021/04/16 09:29:44;;;;;;;7.43;5.82;;;6.20;99.90;;;;;;5083260;28;20602;-79
2021/04/16 09:32:45;;;;;;;7.85;5.90;;;6.30;99.90;;;;;;5091491;28;20679;-78
2021/04/16 09:36:01;;;;;;;8.02;5.63;;;6.30;99.90;;;;;;5074537;28;20199;-77
2021/04/16 09:39:12;;;;;;;7.65;5.40;;;6.50;99.90;;;;;;5070710;28;20690;-78
2021/04/16 09:41:40;;;;;;;7.05;5.63;;;6.60;99.90;;;;;;5033010;28;20203;-78
2021/04/16 09:44:55;;;;;;;7.13;4.90;;;6.80;99.90;;;;;;5080567;28;20239;-78
2021/04/16 09:47:56;;;;;;;10.10;5.53;;;6.80;99.90;;;;;;5092042;28;20217;-78
2021/04/16 09:50:32;;;;;;;6.38;4.55;;;7.00;99.90;;;;;;5032119;28;20592;-77
2021/04/16 09:53:24;;;;;;;12.85;6.30;;;6.90;99.90;;;;;;5034965;28;20587;-78
2021/04/16 09:56:10;;;;;;;7.88;6.00;;;6.80;99.90;;;;;;5082866;28;20201;-80
2021/04/16 09:59:26;;;;;;;7.38;5.00;;;7.10;99.90;;;;;;5091711;28;20244;-84
2021/04/16 10:02:37;;;;;;;9.47;5.40;;;7.50;99.90;;;;;;5110225;28;20252;-86
2021/04/16 10:05:35;;;;;;;6.53;5.30;;;7.50;99.80;;;;;;5098459;28;20531;-86
2021/04/16 10:08:07;;;;;;;10.00;4.88;;;7.40;98.90;;;;;;5096255;28;20576;-85
2021/04/16 10:10:42;;;;;;;6.03;4.20;;;7.40;98.60;;;;;;5104180;28;20233;-84
2021/04/16 10:13:18;;;;;;;6.25;4.63;;;7.50;98.00;;;;;;5083205;28;20198;-84
2021/04/16 10:15:47;;;;;;;8.48;5.45;;;7.60;98.10;;;;;;5078386;28;20205;-85
2021/04/16 10:18:27;;;;;;;6.23;4.67;;;7.80;97.90;;;;;;5080337;28;20324;-84
2021/04/16 10:21:00;;;;;;;6.93;4.75;;;7.70;96.90;;;;;;5086002;28;20429;-85
2021/04/16 10:23:31;;;;;;;7.55;5.85;;;7.90;97.10;;;;;;5096532;28;20834;-86
2021/04/16 12:38:48;;;;;;;11.02;6.10;;;7.30;97.30;;;;;;4999837;28;20439;-83
2021/04/16 12:41:17;;;;;;;6.38;5.05;;;7.40;97.40;;;;;;5006936;28;20200;-85
2021/04/16 12:43:45;;;;;;;5.63;4.30;;;7.40;97.30;;;;;;5021661;28;20277;-83
2021/04/16 12:46:15;;;;;;;5.85;4.50;;;7.50;96.90;;;;;;5020503;28;20596;-82
2021/04/16 12:48:41;;;;;;;7.70;5.65;;;7.50;97.10;;;;;;5020276;28;20230;-83
2021/04/16 12:51:07;;;;;;;6.45;3.78;;;7.70;96.90;;;;;;5019119;28;20313;-80
2021/04/16 12:53:34;;;;;;;7.00;4.20;;;7.60;96.60;;;;;;5020394;28;20259;-84
2021/04/16 12:56:00;;;;;;;7.85;4.70;;;7.70;96.80;;;;;;5023892;28;20223;-84
2021/04/16 12:58:30;;;;;;;6.60;4.67;;;7.80;97.00;;;;;;5022643;28;20200;-85
2021/04/16 13:01:01;;;;;;;6.70;5.32;;;7.80;96.60;;;;;;5024608;28;20555;-85
2021/04/16 13:03:33;;;;;;;8.50;4.00;;;8.10;96.60;;;;;;5015804;28;20224;-87
2021/04/16 13:06:01;;;;;;;7.20;4.20;;;8.30;96.00;;;;;;5008192;28;20455;-86
2021/04/16 13:08:28;;;;;;;6.33;4.60;;;8.10;95.80;;;;;;5003897;28;20479;-88
2021/04/16 13:10:54;;;;;;;10.63;4.40;;;8.10;96.10;;;;;;5002388;28;20487;-88
2021/04/16 13:13:21;;;;;;;6.72;4.35;;;8.10;96.00;;;;;;5008629;28;20545;-82
2021/04/16 13:15:48;;;;;;;5.90;4.65;;;8.40;96.10;;;;;;5008957;28;20200;-80
2021/04/16 13:18:20;;;;;;;6.53;4.93;;;8.30;96.10;;;;;;5023888;28;20219;-82
2021/04/16 13:20:59;;;;;;;6.53;4.80;;;8.40;96.00;;;;;;5028758;28;20250;-81
2021/04/16 13:23:32;;;;;;;6.73;4.80;;;8.50;95.80;;;;;;5024662;28;20474;-80
2021/04/16 13:26:11;;;;;;;6.07;4.30;;;8.20;96.00;;;;;;5028267;28;20463;-79
2021/04/16 13:28:37;;;;;;;6.93;4.83;;;8.40;96.10;;;;;;5026067;28;20478;-87
2021/04/16 13:31:04;;;;;;;10.77;4.50;;;8.20;95.30;;;;;;5022695;28;20533;-86
2021/04/16 13:33:35;;;;;;;5.37;3.87;;;8.10;95.80;;;;;;5023398;28;20547;-89
2021/04/16 13:36:04;;;;;;;4.97;3.43;;;8.40;95.20;;;;;;5025173;28;20454;-86
2021/04/16 13:38:32;;;;;;;6.67;4.00;;;8.40;94.70;;;;;;5024497;28;20443;-86
2021/04/16 13:41:00;;;;;;;9.50;4.10;;;8.40;95.00;;;;;;5025120;28;20459;-83
2021/04/16 13:43:29;;;;;;;8.20;4.10;;;8.40;94.70;;;;;;5010533;28;20468;-86
2021/04/16 13:45:56;;;;;;;6.07;4.43;;;8.60;94.60;;;;;;5011840;28;20471;-88
2021/04/16 13:48:23;;;;;;;10.17;4.67;;;8.50;94.60;;;;;;5028467;28;20581;-87
2021/04/16 13:50:49;;;;;;;5.93;4.33;;;8.80;94.60;;;;;;5027428;28;20478;-85
2021/04/16 13:53:17;;;;;;;7.53;4.90;;;8.50;94.50;;;;;;5024630;28;20487;-84
2021/04/16 13:55:44;;;;;;;7.50;4.20;;;8.40;94.50;;;;;;5032706;28;20435;-85
2021/04/16 13:58:11;;;;;;;6.53;4.10;;;8.60;94.60;;;;;;5020465;28;20475;-83
2021/04/16 14:00:39;;;;;;;7.67;4.70;;;8.50;94.60;;;;;;5005753;28;20232;-88
2021/04/16 14:03:12;;;;;;;7.63;3.93;;;8.50;94.40;;;;;;5007849;28;20505;-88
2021/04/16 14:05:44;;;;;;;9.10;3.87;;;8.60;93.90;;;;;;5011280;28;20424;-80
2021/04/16 14:08:22;;;;;;;7.20;3.87;;;8.70;93.70;;;;;;5030116;28;20458;-86
2021/04/16 14:10:48;;;;;;;5.00;3.40;;;8.50;93.30;;;;;;5032897;28;20474;-85
2021/04/16 14:13:15;;;;;;;6.30;4.43;;;8.60;93.30;;;;;;5027116;28;20247;-85
2021/04/16 14:15:41;;;;;;;6.53;4.00;;;8.80;93.60;;;;;;5003616;28;20216;-83
2021/04/16 14:18:08;;;;;;;4.73;2.40;;;8.60;93.30;;;;;;5004150;28;20487;-83
2021/04/16 14:20:38;;;;;;;6.80;3.90;;;8.40;93.30;;;;;;5017377;28;20522;-83
2021/04/16 14:23:07;;;;;;;10.47;3.80;;;8.40;93.90;;;;;;5018585;28;21004;-83
2021/04/16 14:25:37;;;;;;;5.90;3.93;;;8.40;93.70;;;;;;5012481;28;20478;-84
2021/04/16 14:28:06;;;;;;;7.07;4.20;;;8.70;93.70;;;;;;5026131;28;20439;-82
2021/04/16 14:30:35;;;;;;;4.20;2.60;;;8.60;93.30;;;;;;5029401;28;20963;-85
2021/04/16 14:33:04;;;;;;;4.93;3.40;;;8.80;92.30;;;;;;5022220;28;20487;-84
2021/04/16 14:35:33;;;;;;;4.43;3.00;;;8.50;92.40;;;;;;5026294;28;20466;-85
2021/04/16 14:38:01;;;;;;;4.18;2.60;;;8.20;92.50;;;;;;5032497;28;20218;-82
2021/04/16 14:40:27;;;;;;;3.85;2.67;;;8.40;92.20;;;;;;5032444;28;20226;-84
2021/04/16 14:42:55;;;;;;;5.43;3.00;;;8.50;92.10;;;;;;5029956;28;20287;-79
2021/04/16 14:45:24;;;;;;;5.07;3.07;;;8.40;92.30;;;;;;5029323;28;20192;-82
2021/04/16 14:47:52;;;;;;;4.70;3.03;;;8.30;92.40;;;;;;5027558;28;20485;-84
2021/04/16 14:50:18;;;;;;;5.10;3.70;;;8.40;92.50;;;;;;5014027;28;20582;-86
2021/04/16 14:52:45;;;;;;;5.73;3.13;;;8.50;92.10;;;;;;5008275;28;20241;-82
2021/04/16 14:55:17;;;;;;;5.67;3.63;;;8.70;92.20;;;;;;5018732;28;20858;-80
2021/04/16 14:57:44;;;;;;;4.57;2.77;;;8.60;92.00;;;;;;5020110;28;20486;-83
2021/04/16 15:00:14;;;;;;;3.63;2.20;;;8.70;91.90;;;;;;5017388;28;20462;-81
2021/04/16 15:02:43;;;;;;;5.55;3.80;;;8.70;92.20;;;;;;5015472;28;20550;-82
2021/04/16 15:05:11;;;;;;;4.32;2.85;;;8.40;92.60;;;;;;5018642;28;20263;-84
2021/04/16 15:07:40;;;;;;;4.20;3.27;;;8.40;92.60;;;;;;5018112;28;20304;-83
2021/04/16 15:10:12;;;;;;;5.72;3.20;;;8.10;92.60;;;;;;5018871;28;20456;-80
2021/04/16 15:12:42;;;;;;;5.40;3.97;;;8.40;93.00;;;;;;5019903;28;20323;-82
2021/04/16 15:15:22;;;;;;;8.73;5.30;;;8.50;92.70;;;;;;5019003;28;20482;-86
2021/04/16 15:17:48;;;;;;;6.97;5.10;;;8.40;92.30;;;;;;5019196;28;20853;-84
2021/04/16 15:20:19;;;;;;;5.45;3.65;;;8.50;92.50;;;;;;5019334;28;20208;-84
2021/04/16 15:22:45;;;;;;;5.10;3.90;;;8.60;92.30;;;;;;5005472;28;20316;-86
2021/04/16 15:25:13;;;;;;;5.00;3.10;;;8.50;92.20;;;;;;5007904;28;20455;-84